Time;durP1;ratioP1;P1;durP2;ratioP2;P2;SDS_P1;SDS_P2;PMS_P1;PMS_P2;Temp;Humidity;BMP_temperature;BMP_pressure;BME280_temperature;BME280_humidity;BME280_pressure;Samples;Min_cycle;Max_cycle;Signal;HPM_P1;HPM_P2
2022/02/05 00:02:35;;;;;;;3.38;2.90;;;7.30;87.00;;;;;;4928815;29;20253;-84
2022/02/05 00:05:03;;;;;;;3.27;2.90;;;7.40;86.70;;;;;;4979589;28;20283;-82
2022/02/05 00:07:33;;;;;;;4.47;2.90;;;7.40;86.00;;;;;;4979246;28;20231;-86
2022/02/05 00:10:20;;;;;;;3.93;3.07;;;7.40;86.30;;;;;;4983952;28;20234;-83
2022/02/05 00:12:59;;;;;;;4.17;2.83;;;7.40;87.00;;;;;;4983954;28;20648;-82
2022/02/05 00:15:37;;;;;;;3.03;2.70;;;7.40;86.40;;;;;;4986495;28;20254;-83
2022/02/05 00:43:21;;;;;;;3.47;2.20;;;7.40;87.00;;;;;;4934911;28;20241;-82
2022/02/05 00:45:51;;;;;;;2.63;2.17;;;7.40;86.70;;;;;;4980076;28;21395;-82
2022/02/05 00:48:21;;;;;;;2.33;2.00;;;7.40;87.30;;;;;;4987211;28;20283;-81
2022/02/05 00:50:52;;;;;;;2.60;2.20;;;7.40;87.50;;;;;;4983499;28;20639;-83
2022/02/05 00:53:28;;;;;;;3.70;2.10;;;7.40;88.30;;;;;;4986907;28;20227;-81
2022/02/05 00:56:02;;;;;;;2.57;2.30;;;7.40;89.30;;;;;;4992033;28;20203;-82
2022/02/05 00:58:29;;;;;;;2.75;2.05;;;7.40;90.10;;;;;;4990102;28;20222;-81
2022/02/05 01:00:56;;;;;;;2.80;2.22;;;7.40;90.10;;;;;;4987493;28;20199;-82
2022/02/05 01:03:24;;;;;;;2.27;2.07;;;7.40;90.10;;;;;;4985269;28;20227;-83
2022/02/05 01:05:51;;;;;;;4.43;2.10;;;7.30;90.10;;;;;;4992954;28;20206;-81
2022/02/05 01:08:18;;;;;;;3.83;2.50;;;7.30;90.10;;;;;;4984653;28;20236;-90
2022/02/05 01:10:45;;;;;;;1.90;1.70;;;7.30;90.10;;;;;;4985890;28;20217;-82
2022/02/05 01:13:13;;;;;;;4.43;1.73;;;7.40;90.10;;;;;;4993587;28;20223;-80
2022/02/05 01:15:47;;;;;;;1.10;1.00;;;6.60;89.20;;;;;;4986681;28;20196;-80
2022/02/05 01:18:16;;;;;;;1.53;1.30;;;5.80;91.20;;;;;;4981308;28;20220;-82
2022/02/05 01:23:34;;;;;;;2.77;1.07;;;4.80;94.70;;;;;;4979635;28;20231;-80
2022/02/05 01:26:10;;;;;;;2.37;0.90;;;4.50;95.70;;;;;;4982188;28;20204;-80
2022/02/05 01:28:38;;;;;;;1.07;1.00;;;4.40;96.10;;;;;;4988005;28;20235;-82
2022/02/05 01:31:05;;;;;;;1.10;1.00;;;4.30;96.90;;;;;;4985939;28;20267;-80
2022/02/05 01:33:47;;;;;;;1.47;0.90;;;4.30;96.60;;;;;;4976803;28;20307;-78
2022/02/05 01:36:29;;;;;;;0.80;0.80;;;4.20;96.40;;;;;;4980792;28;20288;-78
2022/02/05 01:50:26;;;;;;;0.90;0.90;;;4.30;96.30;;;;;;4974290;28;20278;-82
2022/02/05 01:55:51;;;;;;;0.90;0.90;;;4.50;96.20;;;;;;4972511;28;20568;-83
2022/02/05 01:58:24;;;;;;;1.20;1.10;;;4.50;95.80;;;;;;4986557;28;20224;-81
2022/02/05 02:06:31;;;;;;;1.00;1.00;;;4.40;96.60;;;;;;4977333;28;20229;-81
2022/02/05 02:11:47;;;;;;;1.37;1.10;;;4.40;96.60;;;;;;4974717;28;20319;-81
2022/02/05 02:19:59;;;;;;;1.47;1.37;;;4.30;97.10;;;;;;4964895;28;20219;-80
2022/02/05 02:22:34;;;;;;;2.30;1.30;;;4.30;97.10;;;;;;4979779;28;20216;-80
2022/02/05 02:25:15;;;;;;;1.23;1.10;;;4.30;97.40;;;;;;4984460;28;20199;-83
2022/02/05 02:27:49;;;;;;;1.13;1.00;;;4.30;97.50;;;;;;4988197;28;20224;-80
2022/02/05 02:30:19;;;;;;;0.93;0.80;;;4.30;95.40;;;;;;4990205;28;20219;-80
2022/02/05 02:32:51;;;;;;;1.23;0.97;;;4.30;94.90;;;;;;4982684;28;20613;-80
2022/02/05 02:35:22;;;;;;;1.07;1.00;;;4.20;94.30;;;;;;4982943;28;20590;-81
2022/02/05 02:37:54;;;;;;;0.93;0.83;;;4.20;94.20;;;;;;4983253;28;20256;-80
2022/02/05 02:40:28;;;;;;;1.30;1.20;;;4.20;93.50;;;;;;4988232;28;20208;-81
2022/02/05 02:43:15;;;;;;;0.70;0.70;;;4.20;92.20;;;;;;4984509;28;20227;-81
2022/02/05 02:45:44;;;;;;;0.70;0.70;;;4.20;91.50;;;;;;4985901;28;20240;-80
2022/02/05 02:48:11;;;;;;;0.93;0.80;;;4.20;90.70;;;;;;4990393;28;20655;-81
2022/02/05 02:58:50;;;;;;;1.03;0.80;;;4.20;89.20;;;;;;4985565;28;20803;-80
2022/02/05 03:01:19;;;;;;;0.70;0.70;;;4.20;88.50;;;;;;4992392;28;20571;-81
2022/02/05 03:03:46;;;;;;;1.20;1.00;;;4.20;88.50;;;;;;4991953;28;20748;-80
2022/02/05 03:06:13;;;;;;;0.60;0.60;;;4.20;87.60;;;;;;4988430;28;20215;-84
2022/02/05 03:08:43;;;;;;;1.67;0.57;;;4.20;87.00;;;;;;5002002;28;20243;-79
2022/02/05 03:11:10;;;;;;;0.60;0.60;;;4.20;88.50;;;;;;5002264;28;20202;-80
2022/02/05 03:13:43;;;;;;;1.17;0.73;;;4.10;88.40;;;;;;5005914;28;20706;-84
2022/02/05 03:16:13;;;;;;;0.70;0.67;;;4.20;89.30;;;;;;4988445;28;20212;-84
2022/02/05 03:18:49;;;;;;;0.87;0.80;;;4.10;86.00;;;;;;4986295;28;20702;-83
2022/02/05 03:21:16;;;;;;;1.13;0.77;;;4.10;87.50;;;;;;4990050;28;20227;-80
2022/02/05 03:23:46;;;;;;;2.10;0.80;;;4.00;87.30;;;;;;4985836;28;20714;-84
2022/02/05 03:26:13;;;;;;;1.50;0.90;;;4.00;88.30;;;;;;4980028;28;20251;-83
2022/02/05 03:28:40;;;;;;;0.80;0.80;;;4.10;88.10;;;;;;4988527;28;20334;-85
2022/02/05 03:31:06;;;;;;;0.80;0.80;;;4.10;87.30;;;;;;5008500;28;20213;-80
2022/02/05 03:33:33;;;;;;;1.13;1.00;;;4.10;88.40;;;;;;4994699;28;20224;-80
2022/02/05 03:36:00;;;;;;;1.07;1.00;;;4.00;88.10;;;;;;4982887;28;20208;-80
2022/02/05 03:38:29;;;;;;;1.20;1.10;;;3.90;88.30;;;;;;4991598;28;20232;-80
2022/02/05 03:40:57;;;;;;;0.90;0.90;;;3.90;88.30;;;;;;4984800;28;20283;-80
2022/02/05 03:43:24;;;;;;;1.97;0.90;;;3.90;87.40;;;;;;4985970;28;20238;-80
2022/02/05 03:45:50;;;;;;;0.90;0.83;;;3.80;88.20;;;;;;4978327;28;20206;-80
2022/02/05 03:48:21;;;;;;;1.10;0.80;;;3.80;88.20;;;;;;4985943;28;20242;-81
2022/02/05 03:50:48;;;;;;;1.30;1.10;;;3.60;88.10;;;;;;4983463;28;20230;-82
2022/02/05 03:53:17;;;;;;;1.30;1.20;;;3.60;88.10;;;;;;4983143;28;20252;-80
2022/02/05 03:55:45;;;;;;;1.30;1.20;;;3.50;86.50;;;;;;4979949;28;20201;-80
2022/02/05 03:58:14;;;;;;;1.27;1.17;;;3.50;86.70;;;;;;4983189;28;20633;-81
2022/02/05 04:00:41;;;;;;;1.10;1.00;;;3.50;82.30;;;;;;4973894;28;20207;-79
2022/02/05 04:03:08;;;;;;;2.03;1.00;;;3.50;83.40;;;;;;4983998;28;20232;-81
2022/02/05 04:05:35;;;;;;;2.20;1.00;;;3.50;83.80;;;;;;4974301;28;20295;-81
2022/02/05 04:08:05;;;;;;;0.83;0.80;;;3.50;86.00;;;;;;4985707;28;20224;-79
2022/02/05 04:10:41;;;;;;;0.70;0.70;;;3.50;88.10;;;;;;4980942;28;20633;-79
2022/02/05 04:16:08;;;;;;;1.40;1.17;;;3.30;90.30;;;;;;4981828;28;20241;-79
2022/02/05 04:18:35;;;;;;;1.13;1.03;;;3.40;90.50;;;;;;4983197;28;20283;-79
2022/02/05 04:21:04;;;;;;;0.80;0.80;;;3.40;90.70;;;;;;4981202;28;20205;-81
2022/02/05 04:23:31;;;;;;;1.70;1.20;;;3.40;90.50;;;;;;4983867;28;20224;-79
2022/02/05 04:25:58;;;;;;;2.70;1.00;;;3.30;89.50;;;;;;4982496;28;20197;-80
2022/02/05 04:28:26;;;;;;;1.20;1.10;;;3.30;88.60;;;;;;4990740;28;20220;-80
2022/02/05 04:30:53;;;;;;;1.77;1.10;;;3.30;88.00;;;;;;4975076;28;20224;-79
2022/02/05 04:33:20;;;;;;;0.87;0.87;;;3.30;87.90;;;;;;4984782;28;20254;-80
2022/02/05 04:35:47;;;;;;;1.63;0.90;;;3.30;87.90;;;;;;4980711;28;20531;-80
2022/02/05 04:38:14;;;;;;;0.80;0.80;;;3.20;87.80;;;;;;4985493;28;20232;-85
2022/02/05 04:40:47;;;;;;;1.10;1.00;;;3.20;87.80;;;;;;4980371;28;20332;-79
2022/02/05 04:43:32;;;;;;;2.07;1.03;;;3.20;87.80;;;;;;4971953;28;20700;-79
2022/02/05 04:46:28;;;;;;;3.20;0.93;;;3.20;87.80;;;;;;4980033;28;20544;-80
2022/02/05 04:57:35;;;;;;;2.73;1.43;;;3.00;87.70;;;;;;4896743;29;20211;-84
2022/02/05 05:00:12;;;;;;;0.90;0.83;;;3.00;87.70;;;;;;4972776;28;20235;-80
2022/02/05 05:05:42;;;;;;;2.73;1.27;;;2.80;88.70;;;;;;4966267;28;20206;-80
2022/02/05 05:08:27;;;;;;;1.27;1.10;;;2.60;90.20;;;;;;4976089;28;20223;-79
2022/02/05 05:11:21;;;;;;;1.40;1.20;;;2.60;90.50;;;;;;4984594;28;20682;-83
2022/02/05 05:19:28;;;;;;;2.47;1.33;;;2.40;91.50;;;;;;4983891;28;20231;-79
2022/02/05 05:21:55;;;;;;;1.43;1.27;;;2.40;91.80;;;;;;4991741;28;20195;-79
2022/02/05 05:24:22;;;;;;;2.70;1.40;;;2.40;92.30;;;;;;4978869;28;20289;-81
2022/02/05 05:26:49;;;;;;;1.30;1.20;;;2.40;92.30;;;;;;4978592;28;20193;-79
2022/02/05 05:29:17;;;;;;;1.97;1.40;;;2.40;92.20;;;;;;4975040;28;20224;-79
2022/02/05 05:31:44;;;;;;;1.67;1.30;;;2.50;92.10;;;;;;4989917;28;20192;-78
2022/02/05 05:34:11;;;;;;;1.30;1.20;;;2.50;92.30;;;;;;4996088;28;20307;-79
2022/02/05 05:36:39;;;;;;;1.70;1.60;;;2.40;92.40;;;;;;4975516;28;20193;-83
2022/02/05 05:39:07;;;;;;;2.40;1.30;;;2.30;92.90;;;;;;4978698;28;20228;-79
2022/02/05 05:41:36;;;;;;;2.43;1.57;;;2.20;93.50;;;;;;4978956;28;20585;-80
2022/02/05 05:44:17;;;;;;;4.63;1.93;;;2.20;93.70;;;;;;4979595;28;20228;-79
2022/02/05 05:46:47;;;;;;;2.57;1.70;;;2.10;94.00;;;;;;4980869;28;20248;-81
2022/02/05 05:49:17;;;;;;;1.80;1.60;;;2.10;94.50;;;;;;4978495;28;20232;-81
2022/02/05 05:51:46;;;;;;;2.23;1.80;;;2.20;94.50;;;;;;4981143;28;20220;-80
2022/02/05 05:54:13;;;;;;;2.03;1.70;;;2.30;94.20;;;;;;4977065;28;20239;-79
2022/02/05 05:56:42;;;;;;;3.87;2.00;;;2.40;94.10;;;;;;4979463;28;20291;-79
2022/02/05 05:59:09;;;;;;;3.57;1.97;;;2.30;94.30;;;;;;4984637;28;20250;-81
2022/02/05 06:01:37;;;;;;;1.90;1.70;;;2.20;94.50;;;;;;4982430;28;20206;-79
2022/02/05 06:04:04;;;;;;;2.90;1.80;;;2.20;94.50;;;;;;4979564;28;20221;-80
2022/02/05 06:06:32;;;;;;;2.90;2.00;;;2.20;94.50;;;;;;4986661;28;20204;-79
2022/02/05 06:09:00;;;;;;;2.00;1.80;;;2.20;94.50;;;;;;4977922;28;20231;-79
2022/02/05 06:11:27;;;;;;;2.17;1.80;;;2.10;94.70;;;;;;4982381;28;20225;-80
2022/02/05 06:13:54;;;;;;;2.13;1.93;;;2.10;95.00;;;;;;4983284;28;20235;-79
2022/02/05 06:16:28;;;;;;;2.90;2.00;;;2.00;95.30;;;;;;4980571;28;20676;-79
2022/02/05 06:18:56;;;;;;;2.73;1.80;;;2.00;95.40;;;;;;4985923;28;20220;-80
2022/02/05 06:21:22;;;;;;;2.57;2.00;;;2.00;95.20;;;;;;4978795;28;20197;-85
2022/02/05 06:23:49;;;;;;;2.50;1.70;;;2.00;95.10;;;;;;4995818;28;21066;-79
2022/02/05 06:26:18;;;;;;;2.00;1.80;;;2.10;94.70;;;;;;4988714;28;20200;-83
2022/02/05 06:28:44;;;;;;;2.20;1.67;;;2.10;94.50;;;;;;4995909;28;20231;-79
2022/02/05 06:31:11;;;;;;;2.00;1.70;;;2.20;93.50;;;;;;4992604;28;20253;-81
2022/02/05 06:33:38;;;;;;;2.30;2.03;;;2.20;92.90;;;;;;4980595;28;20220;-80
2022/02/05 06:36:06;;;;;;;2.67;1.77;;;2.20;92.80;;;;;;4984552;28;20209;-85
2022/02/05 06:38:32;;;;;;;2.13;1.47;;;2.10;92.80;;;;;;4989161;28;20684;-78
2022/02/05 06:40:59;;;;;;;1.90;1.50;;;2.10;92.70;;;;;;4981129;28;20200;-80
2022/02/05 06:43:27;;;;;;;1.50;1.40;;;2.20;92.80;;;;;;4989145;28;20247;-79
2022/02/05 06:45:54;;;;;;;2.27;1.70;;;2.10;92.70;;;;;;4988224;28;20645;-80
2022/02/05 06:48:21;;;;;;;4.33;2.07;;;2.10;92.90;;;;;;4985579;28;20239;-79
2022/02/05 06:50:48;;;;;;;2.03;1.70;;;2.00;93.60;;;;;;4990202;28;20227;-80
2022/02/05 06:53:15;;;;;;;3.27;1.80;;;1.90;93.90;;;;;;4990302;28;20236;-79
2022/02/05 06:55:42;;;;;;;2.37;1.60;;;1.90;94.00;;;;;;4988140;28;20311;-80
2022/02/05 06:58:09;;;;;;;2.07;1.60;;;2.00;93.90;;;;;;4983736;28;20224;-79
2022/02/05 07:00:38;;;;;;;2.27;1.80;;;1.90;94.40;;;;;;4984370;28;20239;-79
2022/02/05 07:03:06;;;;;;;2.00;1.80;;;1.90;93.90;;;;;;4996313;28;20240;-79
2022/02/05 07:05:33;;;;;;;2.30;1.90;;;2.00;94.10;;;;;;4985076;28;20685;-81
2022/02/05 07:08:00;;;;;;;1.97;1.77;;;2.00;94.30;;;;;;4995576;28;20274;-79
2022/02/05 07:10:27;;;;;;;1.70;1.47;;;2.00;93.20;;;;;;4999007;28;20319;-79
2022/02/05 07:13:06;;;;;;;2.27;1.87;;;2.00;93.10;;;;;;4981236;28;20231;-80
2022/02/05 07:15:39;;;;;;;3.83;1.90;;;2.00;93.00;;;;;;4996178;28;20199;-79
2022/02/05 07:18:14;;;;;;;3.80;1.90;;;2.00;92.70;;;;;;4990738;28;20314;-80
2022/02/05 07:20:44;;;;;;;3.83;1.60;;;2.00;92.50;;;;;;4987286;28;20207;-78
2022/02/05 07:23:34;;;;;;;3.30;1.80;;;2.10;92.40;;;;;;4983887;28;20311;-82
2022/02/05 07:31:30;;;;;;;2.63;1.80;;;2.20;91.80;;;;;;4994218;28;20230;-80
2022/02/05 07:34:00;;;;;;;2.67;2.00;;;2.10;91.80;;;;;;4997406;28;20306;-78
2022/02/05 07:36:27;;;;;;;2.33;1.97;;;2.10;92.30;;;;;;4996904;28;20589;-78
2022/02/05 07:38:55;;;;;;;2.63;1.67;;;2.20;92.20;;;;;;4992682;28;20258;-80
2022/02/05 07:41:22;;;;;;;2.23;2.03;;;2.30;92.10;;;;;;4996533;28;20204;-85
2022/02/05 07:43:49;;;;;;;2.40;1.80;;;2.30;91.80;;;;;;4979295;28;20256;-78
2022/02/05 07:46:16;;;;;;;3.30;1.80;;;2.50;91.50;;;;;;4999395;28;20207;-78
2022/02/05 07:48:43;;;;;;;2.43;1.70;;;2.60;91.00;;;;;;4985431;28;20223;-79
2022/02/05 07:51:16;;;;;;;4.23;1.93;;;2.70;91.30;;;;;;4991826;28;20234;-78
2022/02/05 07:53:45;;;;;;;3.70;1.70;;;3.00;91.00;;;;;;4987927;28;20224;-86
2022/02/05 07:56:12;;;;;;;2.70;2.13;;;3.20;90.50;;;;;;4999677;28;20212;-83
2022/02/05 07:58:39;;;;;;;1.80;1.60;;;3.50;88.10;;;;;;5007147;28;20678;-82
2022/02/05 08:01:06;;;;;;;2.53;1.83;;;3.80;88.20;;;;;;4988717;28;20303;-80
2022/02/05 08:03:33;;;;;;;2.83;1.60;;;4.00;86.00;;;;;;4987448;28;20234;-81
2022/02/05 08:06:01;;;;;;;3.07;1.60;;;4.20;80.20;;;;;;5001767;28;20294;-80
2022/02/05 08:08:32;;;;;;;2.13;1.70;;;4.20;80.10;;;;;;5004470;28;20233;-80
2022/02/05 08:11:02;;;;;;;2.80;1.60;;;4.20;80.60;;;;;;4997154;28;20283;-83
2022/02/05 08:13:31;;;;;;;2.27;2.00;;;4.50;80.20;;;;;;4986343;28;20224;-86
2022/02/05 08:16:11;;;;;;;3.63;1.93;;;4.90;76.50;;;;;;4984784;28;20204;-83
2022/02/05 08:18:40;;;;;;;2.93;1.67;;;4.80;71.80;;;;;;4991747;28;20556;-86
2022/02/05 08:21:07;;;;;;;2.20;1.40;;;4.70;73.20;;;;;;4977990;28;20219;-82
2022/02/05 08:23:35;;;;;;;2.23;1.57;;;4.50;75.50;;;;;;4981284;28;20251;-84
2022/02/05 08:26:04;;;;;;;3.07;1.60;;;4.40;75.10;;;;;;4991344;28;20232;-81
2022/02/05 08:28:31;;;;;;;3.00;1.47;;;4.40;76.30;;;;;;4980849;28;20794;-82
2022/02/05 08:31:00;;;;;;;2.37;1.40;;;4.60;75.30;;;;;;4987927;28;20224;-83
2022/02/05 08:33:29;;;;;;;1.93;1.17;;;4.70;69.50;;;;;;4983749;28;20606;-81
2022/02/05 08:35:56;;;;;;;3.00;1.90;;;4.70;71.30;;;;;;4988276;28;20200;-81
2022/02/05 08:38:34;;;;;;;3.70;1.60;;;4.60;71.40;;;;;;4978903;28;20715;-85
2022/02/05 08:41:17;;;;;;;2.93;1.63;;;4.60;69.30;;;;;;4982549;28;20206;-83
2022/02/05 08:43:46;;;;;;;1.70;1.50;;;4.80;69.50;;;;;;4983171;28;20230;-84
2022/02/05 08:46:13;;;;;;;2.93;1.50;;;4.80;67.50;;;;;;4988219;28;20206;-82
2022/02/05 08:48:40;;;;;;;2.50;1.43;;;4.60;67.20;;;;;;4975444;28;20228;-85
2022/02/05 08:51:13;;;;;;;3.13;1.60;;;4.70;68.00;;;;;;4981036;28;21057;-85
2022/02/05 08:53:41;;;;;;;2.27;1.40;;;4.80;68.80;;;;;;4976338;28;20259;-84
2022/02/05 08:56:14;;;;;;;2.43;1.30;;;4.80;67.30;;;;;;4986776;28;20205;-81
2022/02/05 08:58:41;;;;;;;2.63;1.20;;;5.00;63.00;;;;;;4978161;28;20659;-82
2022/02/05 09:01:14;;;;;;;3.10;1.37;;;5.20;62.90;;;;;;4977450;28;20212;-83
2022/02/05 09:03:57;;;;;;;2.50;1.60;;;5.40;59.00;;;;;;4979383;28;20698;-83
2022/02/05 09:06:27;;;;;;;3.60;1.47;;;5.90;55.10;;;;;;4985386;28;20197;-84
2022/02/05 09:09:07;;;;;;;4.45;1.70;;;6.60;51.50;;;;;;4987927;28;20240;-82
2022/02/05 09:12:15;;;;;;;2.85;1.40;;;7.30;46.20;;;;;;5009295;28;20246;-82
2022/02/05 09:15:08;;;;;;;2.20;1.30;;;8.70;40.90;;;;;;5023036;28;20211;-81
2022/02/05 09:17:39;;;;;;;2.42;1.75;;;10.00;30.40;;;;;;5026817;28;20201;-82
2022/02/05 09:23:54;;;;;;;2.63;1.50;;;10.40;28.50;;;;;;4953653;28;20201;-83
2022/02/05 09:27:15;;;;;;;1.88;1.33;;;10.10;29.50;;;;;;4993953;28;20231;-82
2022/02/05 09:33:04;;;;;;;2.65;1.40;;;9.10;32.20;;;;;;4962460;28;20260;-82
2022/02/05 09:35:53;;;;;;;2.80;1.20;;;8.80;34.40;;;;;;4944432;29;20237;-82
2022/02/05 09:38:20;;;;;;;4.40;1.52;;;9.00;31.50;;;;;;4945467;29;20198;-83
2022/02/05 09:40:47;;;;;;;3.45;1.10;;;9.20;32.80;;;;;;4993563;28;20232;-83
2022/02/05 09:43:15;;;;;;;5.28;1.50;;;9.70;29.40;;;;;;4994888;28;20649;-87
2022/02/05 09:45:42;;;;;;;3.45;1.52;;;9.30;30.70;;;;;;5004613;28;20204;-85
2022/02/05 09:48:31;;;;;;;3.80;1.48;;;8.70;33.00;;;;;;4999698;28;20203;-86
2022/02/05 09:51:04;;;;;;;7.00;1.70;;;9.10;31.10;;;;;;5007865;28;20211;-86
2022/02/05 09:53:31;;;;;;;3.72;1.58;;;9.00;32.10;;;;;;4989280;28;20660;-86
2022/02/05 09:55:58;;;;;;;3.42;1.42;;;8.50;31.60;;;;;;4993989;28;20659;-86
2022/02/05 09:58:25;;;;;;;4.38;1.50;;;7.90;33.80;;;;;;4997118;28;20314;-87
2022/02/05 10:01:03;;;;;;;5.30;1.55;;;7.90;34.40;;;;;;4994808;28;20272;-88
2022/02/05 10:04:05;;;;;;;4.78;1.45;;;7.60;34.50;;;;;;4998824;28;20237;-84
2022/02/05 10:06:47;;;;;;;3.75;1.30;;;7.70;33.70;;;;;;4991429;28;20198;-85
2022/02/05 10:09:15;;;;;;;4.63;1.30;;;7.30;35.30;;;;;;4998138;28;20196;-84
2022/02/05 10:11:51;;;;;;;1.80;1.33;;;6.80;35.00;;;;;;4989957;28;20223;-82
2022/02/05 10:14:23;;;;;;;3.95;1.60;;;6.40;36.30;;;;;;4993073;28;20650;-84
2022/02/05 10:16:52;;;;;;;5.95;1.40;;;6.30;38.30;;;;;;4991701;28;20193;-85
2022/02/05 10:19:21;;;;;;;1.80;1.20;;;6.60;38.40;;;;;;4987170;28;20239;-85
2022/02/05 10:22:01;;;;;;;4.00;1.60;;;6.60;35.70;;;;;;4995943;28;20552;-86
2022/02/05 10:24:29;;;;;;;4.07;1.60;;;6.80;36.30;;;;;;4983422;28;20238;-84
2022/02/05 10:26:56;;;;;;;3.25;1.58;;;6.60;34.80;;;;;;4991758;28;20274;-84
2022/02/05 10:29:32;;;;;;;3.63;1.40;;;6.30;36.60;;;;;;4980907;28;20288;-83
2022/02/05 10:32:08;;;;;;;3.22;1.50;;;6.80;37.00;;;;;;4992290;28;20223;-83
2022/02/05 11:20:31;;;;;;;3.97;1.50;;;9.70;25.70;;;;;;5121655;28;20205;-83
2022/02/05 11:23:57;;;;;;;3.15;1.48;;;9.00;27.70;;;;;;5105490;28;20302;-83
2022/02/05 11:27:13;;;;;;;3.88;2.13;;;8.90;29.40;;;;;;5119949;28;20234;-83
2022/02/05 11:37:06;;;;;;;2.33;1.20;;;8.00;30.60;;;;;;5116334;28;20176;-82
2022/02/05 11:39:48;;;;;;;3.22;1.38;;;7.40;32.00;;;;;;5120898;28;20219;-82
2022/02/05 11:42:27;;;;;;;3.25;1.60;;;7.10;31.20;;;;;;5122945;28;20204;-82
2022/02/05 11:44:56;;;;;;;3.35;1.30;;;7.00;33.10;;;;;;5107046;28;20204;-82
2022/02/05 11:54:16;;;;;;;6.03;3.15;;;6.70;33.30;;;;;;5077705;28;20244;-81
2022/02/05 12:03:40;;;;;;;3.20;1.33;;;7.00;33.20;;;;;;5075348;28;20273;-79
2022/02/05 12:06:12;;;;;;;5.13;1.70;;;6.70;34.60;;;;;;5072069;28;20225;-80
2022/02/05 12:08:52;;;;;;;2.80;1.53;;;6.50;34.50;;;;;;5061566;28;20642;-82
2022/02/05 12:11:29;;;;;;;5.30;1.40;;;6.50;35.30;;;;;;5079730;28;20264;-79
2022/02/05 12:14:14;;;;;;;2.80;1.37;;;6.60;34.60;;;;;;5074347;28;20316;-81
2022/02/05 12:17:07;;;;;;;10.53;7.13;;;6.70;34.70;;;;;;5077391;28;20182;-81
2022/02/05 12:23:05;;;;;;;3.60;1.60;;;7.00;33.20;;;;;;5076809;28;20327;-82
2022/02/05 12:29:30;;;;;;;1.92;1.30;;;6.80;35.60;;;;;;5063841;28;20291;-81
2022/02/05 12:32:15;;;;;;;2.08;1.00;;;6.80;33.00;;;;;;5063753;28;20197;-83
2022/02/05 12:35:38;;;;;;;2.83;1.20;;;7.00;33.20;;;;;;5062851;28;20316;-83
2022/02/05 12:38:06;;;;;;;2.83;1.13;;;7.00;33.70;;;;;;5063283;28;20225;-82
2022/02/05 12:47:19;;;;;;;3.53;1.70;;;7.10;34.40;;;;;;5051484;28;20648;-81
2022/02/05 12:49:53;;;;;;;4.90;1.38;;;7.10;33.50;;;;;;5047973;28;20229;-81
2022/02/05 12:55:33;;;;;;;3.53;1.50;;;6.70;36.00;;;;;;5065031;28;20190;-81
2022/02/05 12:58:18;;;;;;;6.50;1.50;;;6.60;34.60;;;;;;5065879;28;20277;-81
2022/02/05 13:00:45;;;;;;;1.73;1.20;;;6.40;35.40;;;;;;5068779;28;20198;-84
2022/02/05 13:03:25;;;;;;;6.90;1.50;;;6.40;36.10;;;;;;5051185;28;20226;-82
2022/02/05 13:05:51;;;;;;;2.07;1.23;;;6.50;34.80;;;;;;5069414;28;20193;-83
2022/02/05 13:08:18;;;;;;;2.80;1.50;;;6.50;33.80;;;;;;5062163;28;20305;-80
2022/02/05 13:10:46;;;;;;;2.50;1.30;;;6.30;33.50;;;;;;5074888;28;20287;-84
2022/02/05 13:13:14;;;;;;;4.90;1.60;;;6.40;34.60;;;;;;5065584;28;20249;-82
2022/02/05 13:15:41;;;;;;;2.27;1.30;;;6.50;34.50;;;;;;5063115;28;20202;-81
2022/02/05 13:18:19;;;;;;;3.87;1.60;;;6.60;34.50;;;;;;5062531;28;20301;-81
2022/02/05 13:26:53;;;;;;;4.47;1.40;;;6.70;34.80;;;;;;5062006;28;20178;-81
2022/02/05 13:29:40;;;;;;;2.20;1.50;;;6.60;34.50;;;;;;5054126;28;20206;-82
2022/02/05 13:57:15;;;;;;;4.50;2.53;;;6.80;32.20;;;;;;5683317;22;20579;-83
2022/02/05 13:59:42;;;;;;;2.77;1.50;;;6.80;31.20;;;;;;5100814;28;20549;-82
2022/02/05 14:16:12;;;;;;;3.80;1.30;;;6.70;33.60;;;;;;5102849;28;20595;-82
2022/02/05 14:18:53;;;;;;;1.70;1.20;;;6.70;32.80;;;;;;5098515;28;20196;-82
2022/02/05 14:21:32;;;;;;;2.50;1.40;;;6.80;33.00;;;;;;5097437;28;20196;-81
2022/02/05 14:23:58;;;;;;;4.57;1.40;;;6.80;32.50;;;;;;5093612;28;20232;-79
2022/02/05 14:26:30;;;;;;;2.33;1.13;;;6.90;32.80;;;;;;5098270;28;20263;-80
2022/02/05 14:28:58;;;;;;;1.73;1.30;;;6.80;33.60;;;;;;5099601;28;20228;-82
2022/02/05 14:31:33;;;;;;;3.33;1.37;;;6.80;33.20;;;;;;5102370;28;20263;-82
2022/02/05 14:34:10;;;;;;;1.57;1.00;;;6.80;32.80;;;;;;5101841;28;20230;-79
2022/02/05 14:47:14;;;;;;;3.40;1.33;;;6.80;33.60;;;;;;5100367;28;20185;-82
2022/02/05 14:49:43;;;;;;;2.93;1.13;;;6.60;33.20;;;;;;5101221;27;20260;-82
2022/02/05 14:52:14;;;;;;;2.67;1.40;;;6.50;33.00;;;;;;5100060;28;20666;-82
2022/02/05 15:22:56;;;;;;;2.73;1.20;;;6.00;34.50;;;;;;5074877;28;20633;-79
2022/02/05 15:28:56;;;;;;;1.73;1.10;;;5.80;34.10;;;;;;5078852;28;20169;-79
2022/02/05 15:32:18;;;;;;;1.93;1.10;;;5.70;35.10;;;;;;5076882;28;20189;-78
2022/02/05 15:44:50;;;;;;;1.23;1.00;;;5.50;36.00;;;;;;5084846;28;20228;-80
2022/02/05 15:47:17;;;;;;;2.13;1.27;;;5.50;38.20;;;;;;5091511;28;20241;-86
2022/02/05 15:49:44;;;;;;;3.20;1.37;;;5.50;36.80;;;;;;5093336;28;20767;-82
2022/02/05 15:52:13;;;;;;;2.27;1.17;;;5.40;39.00;;;;;;5089150;28;20197;-82
2022/02/05 15:54:40;;;;;;;3.10;1.57;;;5.40;38.20;;;;;;5079040;28;20221;-80
2022/02/05 15:57:22;;;;;;;1.67;1.30;;;5.30;38.30;;;;;;5077888;28;20640;-83
2022/02/05 15:59:59;;;;;;;2.47;1.10;;;5.30;37.40;;;;;;5092166;28;20217;-80
2022/02/05 16:02:26;;;;;;;2.70;1.77;;;5.30;38.20;;;;;;5097296;28;20204;-80
2022/02/05 16:08:15;;;;;;;5.10;1.40;;;5.20;41.00;;;;;;5094378;28;20706;-80
2022/02/05 16:10:42;;;;;;;2.20;1.40;;;5.20;40.80;;;;;;5099017;28;20298;-80
2022/02/05 16:13:12;;;;;;;2.83;1.67;;;5.20;42.20;;;;;;5082957;28;20239;-79
2022/02/05 16:16:25;;;;;;;2.53;1.33;;;5.20;44.50;;;;;;5095805;28;20192;-80
2022/02/05 16:19:12;;;;;;;2.37;1.30;;;5.20;41.60;;;;;;5089843;28;20317;-80
2022/02/05 16:22:20;;;;;;;4.70;1.57;;;5.10;42.60;;;;;;5093122;28;20197;-80
2022/02/05 16:24:47;;;;;;;6.70;1.30;;;4.90;44.20;;;;;;5076967;28;20208;-80
2022/02/05 16:27:14;;;;;;;4.00;1.67;;;4.80;47.60;;;;;;5089849;28;20197;-80
2022/02/05 16:29:44;;;;;;;2.33;1.40;;;4.70;46.60;;;;;;5088821;28;20260;-80
2022/02/05 16:32:11;;;;;;;5.47;1.80;;;4.70;46.40;;;;;;5079689;28;20208;-80
2022/02/05 16:34:44;;;;;;;3.83;1.67;;;4.70;48.40;;;;;;5087532;28;20224;-80
2022/02/05 16:37:11;;;;;;;3.87;1.80;;;4.70;49.60;;;;;;5091860;28;20224;-79
2022/02/05 16:39:43;;;;;;;6.63;1.70;;;4.60;51.10;;;;;;5097195;28;20230;-79
2022/02/05 16:42:10;;;;;;;5.00;1.90;;;4.50;49.90;;;;;;5099522;28;20211;-79
2022/02/05 16:51:00;;;;;;;6.03;1.73;;;4.30;51.50;;;;;;6084488;22;20813;-84
2022/02/05 16:53:27;;;;;;;4.53;1.77;;;4.30;52.20;;;;;;5120136;27;20743;-80
2022/02/05 16:55:54;;;;;;;16.33;10.37;;;4.30;51.80;;;;;;5123702;28;20259;-81
2022/02/05 16:58:20;;;;;;;4.47;2.23;;;4.20;52.50;;;;;;5120485;28;20238;-80
2022/02/05 17:00:51;;;;;;;10.43;6.30;;;4.10;52.70;;;;;;5122786;28;20200;-80
2022/02/05 17:03:19;;;;;;;76.03;50.60;;;4.10;53.00;;;;;;5121786;27;20200;-81
2022/02/05 17:05:56;;;;;;;9.50;4.17;;;4.00;54.00;;;;;;5121027;28;20693;-78
2022/02/05 17:08:30;;;;;;;5.83;3.43;;;4.00;55.30;;;;;;5121387;27;20294;-78
2022/02/05 17:10:58;;;;;;;5.23;2.00;;;4.00;55.30;;;;;;5116574;28;20666;-79
2022/02/05 17:13:28;;;;;;;4.30;1.87;;;4.00;55.50;;;;;;5106206;28;20231;-79
2022/02/05 17:15:55;;;;;;;27.43;18.40;;;4.00;56.50;;;;;;5109608;27;20229;-79
2022/02/05 17:18:25;;;;;;;5.07;2.57;;;4.00;57.80;;;;;;5113692;28;20281;-80
2022/02/05 17:21:12;;;;;;;14.13;8.33;;;3.90;58.10;;;;;;5120730;28;20230;-79
2022/02/05 17:23:44;;;;;;;5.20;2.10;;;3.80;59.20;;;;;;5118181;28;20292;-81
2022/02/05 17:26:14;;;;;;;5.80;2.00;;;3.80;59.20;;;;;;5118762;28;20192;-80
2022/02/05 17:28:41;;;;;;;5.97;2.57;;;3.90;58.70;;;;;;5118269;27;20224;-81
2022/02/05 17:31:09;;;;;;;7.83;2.20;;;3.90;58.20;;;;;;5111964;28;20226;-82
2022/02/05 17:33:36;;;;;;;5.80;2.33;;;3.80;59.30;;;;;;5117485;28;20228;-80
2022/02/05 17:36:06;;;;;;;9.60;2.90;;;3.90;58.90;;;;;;5101268;28;20643;-82
2022/02/05 17:42:01;;;;;;;4.50;2.30;;;4.00;59.70;;;;;;5117893;28;20179;-78
2022/02/05 17:56:29;;;;;;;8.13;3.17;;;3.70;65.20;;;;;;5501205;22;20233;-84
2022/02/05 17:59:00;;;;;;;5.07;2.40;;;3.60;65.80;;;;;;5065832;28;20237;-83
2022/02/05 18:11:01;;;;;;;7.60;4.00;;;3.50;68.10;;;;;;5041230;28;20219;-84
2022/02/05 18:16:30;;;;;;;14.47;7.30;;;3.30;68.00;;;;;;5082129;28;20208;-84
2022/02/05 18:18:58;;;;;;;18.43;9.17;;;3.30;68.00;;;;;;5067517;28;20228;-84
2022/02/05 18:21:25;;;;;;;22.93;11.27;;;3.30;68.00;;;;;;5064648;28;20296;-84
2022/02/05 18:23:53;;;;;;;26.50;10.67;;;3.30;68.00;;;;;;5081622;28;20316;-84
2022/02/05 18:26:21;;;;;;;21.40;9.97;;;3.30;68.00;;;;;;5077248;28;20194;-85
2022/02/05 18:28:56;;;;;;;17.03;7.23;;;3.30;68.00;;;;;;5072639;28;20216;-86
2022/02/05 18:31:24;;;;;;;18.47;8.90;;;3.10;67.80;;;;;;5071973;28;20257;-86
2022/02/05 18:33:54;;;;;;;16.13;8.13;;;3.00;70.50;;;;;;5066589;28;20225;-91
2022/02/05 18:36:21;;;;;;;15.73;7.80;;;2.90;72.70;;;;;;5067506;28;20241;-85
2022/02/05 18:38:48;;;;;;;11.73;5.60;;;2.80;73.20;;;;;;5073649;28;20296;-85